createdAt,value
2022-11-12T00:00:19.807Z,131.27
2022-11-12T00:03:26.705Z,133.30
2022-11-12T00:06:34.414Z,137.60
2022-11-12T00:09:41.052Z,141.87
2022-11-12T00:12:47.629Z,137.37
2022-11-12T00:15:54.182Z,146.60
2022-11-12T00:19:00.726Z,129.80
2022-11-12T00:22:08.472Z,149.27
2022-11-12T00:25:15.278Z,131.50
2022-11-12T00:28:22.002Z,139.43
2022-11-12T00:31:28.537Z,128.80
2022-11-12T00:34:36.084Z,148.37
2022-11-12T00:37:44.268Z,137.90
2022-11-12T00:40:50.814Z,130.43
2022-11-12T00:43:57.663Z,129.77
2022-11-12T00:47:04.077Z,134.33
2022-11-12T00:50:11.178Z,144.97
2022-11-12T00:53:19.267Z,143.23
2022-11-12T00:56:25.758Z,136.87
2022-11-12T00:59:32.121Z,139.83
2022-11-12T01:02:44.254Z,136.97
2022-11-12T01:05:52.772Z,145.20
2022-11-12T01:09:00.606Z,142.10
2022-11-12T01:12:07.051Z,135.30
2022-11-12T01:15:13.709Z,143.33
2022-11-12T01:18:20.075Z,145.83
2022-11-12T01:21:30.096Z,150.77
2022-11-12T01:24:37.818Z,134.00
2022-11-12T01:27:44.283Z,141.77
2022-11-12T01:30:50.833Z,133.33
2022-11-12T01:34:00.400Z,132.30
2022-11-12T01:37:06.848Z,161.07
2022-11-12T01:40:15.156Z,143.23
2022-11-12T01:43:21.578Z,135.93
2022-11-12T01:46:30.508Z,135.03
2022-11-12T01:49:45.159Z,140.20
2022-11-12T01:53:00.568Z,147.37
2022-11-12T01:56:08.755Z,154.53
2022-11-12T01:59:20.860Z,147.80
2022-11-12T02:02:28.060Z,153.03
2022-11-12T02:05:36.834Z,156.73
2022-11-12T02:08:43.944Z,147.63
2022-11-12T02:11:51.609Z,143.60
2022-11-12T02:14:56.945Z,151.30
2022-11-12T02:18:03.998Z,141.07
2022-11-12T02:21:10.678Z,144.43
2022-11-12T02:24:36.867Z,141.00
2022-11-12T02:27:44.227Z,154.77
2022-11-12T02:30:50.581Z,141.40
2022-11-12T02:33:57.388Z,142.60
2022-11-12T02:37:03.904Z,156.90
2022-11-12T02:40:12.300Z,154.90
2022-11-12T02:43:18.812Z,146.13
2022-11-12T02:46:25.527Z,137.40
2022-11-12T02:49:31.833Z,130.60
2022-11-12T02:52:39.769Z,132.50
2022-11-12T02:55:47.807Z,139.23
2022-11-12T02:58:54.134Z,137.33
2022-11-12T03:02:00.746Z,141.47
2022-11-12T03:05:08.676Z,133.43
2022-11-12T03:08:15.249Z,120.93
2022-11-12T03:11:23.094Z,134.37
2022-11-12T03:14:29.474Z,120.60
2022-11-12T03:17:36.044Z,117.93
2022-11-12T03:20:42.739Z,122.53
2022-11-12T03:23:49.182Z,122.87
2022-11-12T03:26:57.309Z,121.03
2022-11-12T03:30:03.852Z,123.10
2022-11-12T03:33:12.402Z,124.67
2022-11-12T03:36:18.964Z,117.80
2022-11-12T03:39:25.425Z,114.20
2022-11-12T03:42:33.168Z,108.30
2022-11-12T03:45:39.594Z,118.33
2022-11-12T03:48:46.338Z,117.00
2022-11-12T03:51:53.051Z,118.80
2022-11-12T03:54:59.716Z,112.70
2022-11-12T03:58:07.395Z,119.37
2022-11-12T04:01:13.933Z,114.60
2022-11-12T04:04:20.406Z,119.77
2022-11-12T04:07:44.143Z,120.43
2022-11-12T04:10:50.876Z,111.77
2022-11-12T04:13:58.868Z,118.23
2022-11-12T04:17:22.699Z,103.30
2022-11-12T04:20:46.922Z,115.90
2022-11-12T04:23:53.538Z,99.00
2022-11-12T04:26:58.922Z,114.47
2022-11-12T04:30:19.854Z,111.50
2022-11-12T04:33:26.240Z,107.70
2022-11-12T04:36:33.018Z,105.17
2022-11-12T04:39:39.390Z,123.47
2022-11-12T04:43:06.501Z,105.20
2022-11-12T04:46:14.506Z,95.13
2022-11-12T04:49:21.147Z,103.77
2022-11-12T04:52:28.215Z,95.70
2022-11-12T04:55:34.585Z,99.03
2022-11-12T04:58:41.081Z,90.60
2022-11-12T05:01:48.915Z,97.37
2022-11-12T05:04:55.274Z,102.67
2022-11-12T05:08:02.241Z,100.17
2022-11-12T05:11:12.793Z,101.20
2022-11-12T05:14:19.883Z,115.47
2022-11-12T05:17:28.033Z,103.23
2022-11-12T05:20:35.905Z,104.20
2022-11-12T05:23:42.603Z,116.70
2022-11-12T05:26:49.229Z,108.13
2022-11-12T05:29:55.802Z,111.87
2022-11-12T05:33:03.525Z,90.17
2022-11-12T05:36:10.036Z,106.33
2022-11-12T05:39:16.793Z,98.27
2022-11-12T05:42:23.207Z,101.03
2022-11-12T05:45:29.949Z,100.57
2022-11-12T05:48:37.693Z,105.87
2022-11-12T05:51:44.642Z,92.73
2022-11-12T05:54:51.437Z,106.87
2022-11-12T05:57:57.824Z,115.23
2022-11-12T06:01:05.380Z,114.47
2022-11-12T06:04:14.928Z,107.40
2022-11-12T06:07:21.645Z,103.60
2022-11-12T06:10:28.542Z,105.53
2022-11-12T06:13:35.337Z,101.00
2022-11-12T06:16:41.852Z,119.83
2022-11-12T06:19:50.017Z,110.90
2022-11-12T06:22:57.716Z,99.03
2022-11-12T06:26:05.110Z,109.57
2022-11-12T06:29:12.010Z,111.40
2022-11-12T06:32:18.457Z,111.40
2022-11-12T06:35:26.619Z,110.97
2022-11-12T06:38:34.213Z,100.13
2022-11-12T06:41:40.737Z,106.13
2022-11-12T06:44:47.568Z,110.17
2022-11-12T06:47:53.917Z,98.83
2022-11-12T06:51:07.710Z,103.03
2022-11-12T06:54:14.376Z,108.77
2022-11-12T06:57:20.715Z,107.57
2022-11-12T07:00:27.639Z,105.13
2022-11-12T07:03:34.433Z,101.90
2022-11-12T07:06:22.337Z,107.23
2022-11-12T07:09:08.718Z,104.63
2022-11-12T07:11:54.955Z,108.93
2022-11-12T07:14:41.217Z,111.93
2022-11-12T07:17:27.649Z,106.33
2022-11-12T07:20:14.589Z,105.83
2022-11-12T07:23:02.670Z,103.53
2022-11-12T07:25:48.840Z,118.27
2022-11-12T07:28:35.533Z,108.40
2022-11-12T07:31:22.099Z,111.00
2022-11-12T07:34:08.474Z,109.10
2022-11-12T07:36:54.760Z,102.03
2022-11-12T07:39:42.323Z,112.03
2022-11-12T07:42:28.682Z,98.93
2022-11-12T07:45:15.125Z,105.30
2022-11-12T07:48:01.343Z,115.33
2022-11-12T07:50:47.534Z,113.07
2022-11-12T07:53:33.943Z,116.73
2022-11-12T07:56:23.367Z,108.47
2022-11-12T07:59:09.555Z,111.13
2022-11-12T08:01:56.224Z,116.47
2022-11-12T08:04:42.678Z,109.13
2022-11-12T08:07:28.939Z,119.43
2022-11-12T08:10:15.674Z,117.30
2022-11-12T08:13:03.431Z,116.87
2022-11-12T08:15:52.385Z,121.67
2022-11-12T08:18:38.544Z,121.40
2022-11-12T08:21:24.706Z,125.47
2022-11-12T08:24:11.157Z,119.03
2022-11-12T08:26:57.411Z,119.60
2022-11-12T08:29:45.218Z,126.03
2022-11-12T08:32:32.161Z,140.60
2022-11-12T08:35:18.313Z,134.57
2022-11-12T08:38:06.559Z,135.47
2022-11-12T08:40:53.030Z,123.17
2022-11-12T08:43:40.405Z,118.97
2022-11-12T08:46:28.171Z,133.23
2022-11-12T08:49:14.616Z,128.87
2022-11-12T08:52:00.899Z,122.80
2022-11-12T08:54:47.155Z,126.53
2022-11-12T08:57:33.719Z,124.40
2022-11-12T09:00:20.212Z,119.87
2022-11-12T09:03:13.333Z,132.13
2022-11-12T09:06:04.165Z,119.77
2022-11-12T09:08:50.296Z,129.73
2022-11-12T09:11:36.775Z,134.67
2022-11-12T09:14:23.157Z,138.27
2022-11-12T09:17:09.526Z,124.40
2022-11-12T09:19:57.446Z,142.80
2022-11-12T09:22:43.733Z,147.53
2022-11-12T09:25:30.025Z,138.63
2022-11-12T09:28:18.210Z,142.77
2022-11-12T09:31:08.355Z,140.10
2022-11-12T09:33:54.667Z,152.03
2022-11-12T09:36:42.207Z,144.03
2022-11-12T09:39:28.627Z,149.40
2022-11-12T09:42:17.547Z,150.00
2022-11-12T09:45:11.524Z,149.97
2022-11-12T09:48:01.033Z,145.03
2022-11-12T09:50:55.522Z,144.73
2022-11-12T09:53:49.843Z,145.73
2022-11-12T09:56:35.895Z,145.63
2022-11-12T09:59:23.436Z,139.60
2022-11-12T10:02:26.947Z,139.27
2022-11-12T10:05:23.220Z,155.47
2022-11-12T10:08:29.986Z,143.00
2022-11-12T10:12:03.796Z,149.43
2022-11-12T10:15:24.676Z,137.47
2022-11-12T10:18:16.769Z,152.77
2022-11-12T10:21:13.291Z,155.23
2022-11-12T10:24:01.771Z,147.63
2022-11-12T10:26:49.675Z,161.63
2022-11-12T10:29:43.175Z,169.00
2022-11-12T10:32:29.326Z,184.80
2022-11-12T10:35:18.719Z,183.10
2022-11-12T10:38:08.417Z,170.83
2022-11-12T10:40:54.788Z,182.97
2022-11-12T10:43:54.710Z,176.53
2022-11-12T10:46:41.324Z,174.23
2022-11-12T10:49:27.561Z,165.77
2022-11-12T10:52:24.734Z,175.30
2022-11-12T10:55:17.858Z,189.37
2022-11-12T10:58:06.546Z,166.40
2022-11-12T11:00:57.372Z,176.97
2022-11-12T11:03:48.391Z,191.90
2022-11-12T11:06:34.574Z,180.50
2022-11-12T11:09:27.378Z,183.17
2022-11-12T11:12:24.596Z,170.17
2022-11-12T11:15:21.153Z,175.90
2022-11-12T11:18:12.552Z,183.50
2022-11-12T11:21:17.779Z,172.40
2022-11-12T11:24:16.126Z,183.43
2022-11-12T11:27:05.920Z,179.73
2022-11-12T11:30:04.509Z,179.10
2022-11-12T11:33:22.779Z,188.77
2022-11-12T11:36:21.962Z,178.53
2022-11-12T11:39:18.794Z,186.30
2022-11-12T11:42:18.529Z,178.10
2022-11-12T11:45:16.208Z,175.37
2022-11-12T11:48:13.873Z,193.37
2022-11-12T11:51:08.245Z,162.23
2022-11-12T11:54:07.259Z,171.40
2022-11-12T11:56:59.024Z,179.20
2022-11-12T12:00:02.075Z,165.43
2022-11-12T12:03:06.855Z,190.30
2022-11-12T12:06:16.819Z,180.20
2022-11-12T12:09:25.077Z,163.23
2022-11-12T12:12:23.811Z,173.33
2022-11-12T12:15:34.405Z,193.67
2022-11-12T12:18:33.703Z,173.30
2022-11-12T12:21:22.905Z,172.57
2022-11-12T12:24:15.252Z,169.87
2022-11-12T12:27:05.475Z,178.57
2022-11-12T12:29:54.643Z,176.63
2022-11-12T12:32:46.261Z,173.97
2022-11-12T12:35:35.595Z,183.80
2022-11-12T12:38:28.484Z,179.00
2022-11-12T12:41:20.515Z,193.93
2022-11-12T12:44:10.311Z,185.10
2022-11-12T12:47:01.475Z,185.07
2022-11-12T12:49:50.367Z,207.23
2022-11-12T12:53:02.263Z,185.83
2022-11-12T12:55:52.067Z,191.40
2022-11-12T12:58:44.979Z,188.33
2022-11-12T13:01:33.859Z,195.53
2022-11-12T13:04:53.443Z,195.97
2022-11-12T13:07:43.071Z,178.70
2022-11-12T13:10:52.061Z,180.70
2022-11-12T13:13:39.084Z,159.87
2022-11-12T13:16:58.772Z,189.30
2022-11-12T13:19:47.622Z,180.10
2022-11-12T13:22:51.487Z,183.00
2022-11-12T13:25:38.813Z,185.17
2022-11-12T13:28:26.578Z,177.10
2022-11-12T13:31:27.691Z,172.90
2022-11-12T13:34:19.522Z,194.60
2022-11-12T13:37:07.057Z,176.60
2022-11-12T13:39:53.491Z,177.83
2022-11-12T13:42:49.042Z,188.30
2022-11-12T13:45:42.190Z,175.60
2022-11-12T13:48:32.210Z,181.97
2022-11-12T13:51:22.827Z,182.67
2022-11-12T13:54:32.471Z,183.60
2022-11-12T13:57:30.457Z,169.97
2022-11-12T14:00:26.031Z,180.47
2022-11-12T14:03:19.358Z,180.10
2022-11-12T14:06:15.551Z,179.53
2022-11-12T14:09:21.160Z,160.20
2022-11-12T14:12:21.967Z,180.57
2022-11-12T14:15:26.119Z,178.17
2022-11-12T14:18:21.710Z,178.07
2022-11-12T14:21:14.295Z,172.03
2022-11-12T14:24:03.644Z,177.57
2022-11-12T14:26:49.977Z,179.73
2022-11-12T14:29:41.100Z,159.90
2022-11-12T14:32:36.805Z,182.63
2022-11-12T14:35:35.637Z,189.53
2022-11-12T14:38:24.222Z,177.50
2022-11-12T14:41:16.892Z,171.47
2022-11-12T14:44:13.911Z,169.37
2022-11-12T14:47:02.189Z,173.97
2022-11-12T14:49:50.803Z,186.90
2022-11-12T14:52:43.495Z,192.07
2022-11-12T14:55:33.232Z,200.50
2022-11-12T14:58:21.208Z,174.27
2022-11-12T15:04:35.794Z,153.60
2022-11-12T15:07:26.498Z,164.83
2022-11-12T15:10:36.206Z,174.30
2022-11-12T15:13:25.047Z,169.80
2022-11-12T15:16:17.389Z,153.60
2022-11-12T15:19:21.942Z,157.47
2022-11-12T15:22:20.645Z,170.90
2022-11-12T15:25:21.588Z,162.57
2022-11-12T15:28:22.459Z,164.23
2022-11-12T15:31:17.253Z,151.43
2022-11-12T15:34:43.182Z,155.23
2022-11-12T15:37:36.981Z,161.17
2022-11-12T15:40:23.416Z,155.83
2022-11-12T15:43:16.880Z,154.73
2022-11-12T15:46:03.797Z,152.77
2022-11-12T15:48:55.595Z,157.97
2022-11-12T15:51:42.169Z,157.60
2022-11-12T15:54:28.517Z,162.23
2022-11-12T15:57:18.117Z,167.87
2022-11-12T16:00:11.297Z,168.47
2022-11-12T16:03:00.331Z,157.63
2022-11-12T16:05:47.188Z,162.53
2022-11-12T16:08:33.652Z,158.10
2022-11-12T16:11:38.450Z,154.97
2022-11-12T16:14:25.242Z,154.83
2022-11-12T16:17:15.308Z,152.20
2022-11-12T16:20:01.843Z,154.57
2022-11-12T16:22:48.345Z,149.63
2022-11-12T16:25:36.819Z,158.40
2022-11-12T16:28:23.073Z,163.80
2022-11-12T16:31:09.076Z,160.33
2022-11-12T16:33:56.537Z,165.90
2022-11-12T16:36:43.024Z,156.07
2022-11-12T16:39:31.035Z,156.93
2022-11-12T16:42:17.084Z,162.83
2022-11-12T16:45:03.683Z,183.63
2022-11-12T16:47:52.186Z,156.57
2022-11-12T16:50:39.525Z,162.03
2022-11-12T16:53:26.232Z,156.43
2022-11-12T16:56:14.666Z,171.63
2022-11-12T16:59:00.960Z,184.77
2022-11-12T17:01:47.322Z,164.27
2022-11-12T17:04:33.710Z,166.07
2022-11-12T17:07:21.198Z,155.73
2022-11-12T17:10:08.495Z,157.37
2022-11-12T17:12:54.634Z,157.30
2022-11-12T17:15:41.183Z,163.40
2022-11-12T17:18:27.231Z,160.17
2022-11-12T17:21:16.063Z,161.77
2022-11-12T17:24:03.706Z,171.10
2022-11-12T17:26:50.004Z,160.60
2022-11-12T17:29:36.366Z,165.23
2022-11-12T17:32:23.696Z,156.57
2022-11-12T17:35:10.134Z,185.47
2022-11-12T17:37:56.540Z,168.40
2022-11-12T17:40:44.470Z,172.77
2022-11-12T17:43:30.907Z,164.87
2022-11-12T17:46:17.134Z,178.40
2022-11-12T17:49:03.845Z,172.47
2022-11-12T17:51:50.084Z,159.17
2022-11-12T17:54:36.575Z,165.20
2022-11-12T17:57:24.127Z,171.07
2022-11-12T18:00:11.967Z,179.80
2022-11-12T18:02:58.560Z,151.53
2022-11-12T18:05:45.215Z,182.00
2022-11-12T18:08:31.701Z,173.67
2022-11-12T18:11:17.874Z,168.47
2022-11-12T18:14:08.762Z,162.00
2022-11-12T18:16:56.827Z,168.63
2022-11-12T18:19:42.948Z,173.03
2022-11-12T18:22:29.049Z,175.57
2022-11-12T18:25:15.565Z,184.70
2022-11-12T18:28:01.762Z,175.97
2022-11-12T18:30:49.399Z,160.60
2022-11-12T18:33:37.506Z,171.37
2022-11-12T18:36:25.999Z,173.07
2022-11-12T18:39:12.183Z,166.10
2022-11-12T18:41:58.577Z,177.70
2022-11-12T18:44:45.080Z,177.93
2022-11-12T18:47:32.857Z,170.77
2022-11-12T18:50:19.418Z,177.40
2022-11-12T18:53:05.828Z,176.53
2022-11-12T18:55:51.791Z,171.40
2022-11-12T18:58:38.160Z,174.90
2022-11-12T19:01:25.809Z,168.63
2022-11-12T19:04:13.669Z,177.70
2022-11-12T19:06:59.897Z,172.47
2022-11-12T19:09:46.416Z,172.70
2022-11-12T19:12:33.342Z,165.70
2022-11-12T19:15:24.065Z,171.70
2022-11-12T19:18:13.142Z,171.23
2022-11-12T19:21:06.357Z,185.47
2022-11-12T19:23:54.933Z,162.13
2022-11-12T19:26:41.343Z,164.40
2022-11-12T19:29:27.490Z,170.10
2022-11-12T19:32:13.635Z,171.93
2022-11-12T19:35:00.219Z,162.17
2022-11-12T19:37:47.618Z,175.70
2022-11-12T19:40:34.043Z,172.40
2022-11-12T19:43:23.658Z,161.67
2022-11-12T19:46:10.413Z,178.50
2022-11-12T19:48:56.646Z,167.87
2022-11-12T19:51:43.235Z,165.07
2022-11-12T19:54:30.694Z,169.23
2022-11-12T19:57:17.042Z,164.80
2022-11-12T20:00:04.798Z,162.27
2022-11-12T20:02:50.911Z,158.60
2022-11-12T20:05:37.487Z,169.43
2022-11-12T20:08:25.207Z,166.40
2022-11-12T20:11:13.227Z,157.03
2022-11-12T20:13:59.620Z,159.37
2022-11-12T20:16:45.932Z,156.53
2022-11-12T20:19:32.124Z,161.07
2022-11-12T20:22:18.508Z,164.47
2022-11-12T20:25:05.378Z,157.07
2022-11-12T20:27:53.101Z,159.50
2022-11-12T20:30:39.897Z,169.70
2022-11-12T20:33:26.310Z,144.97
2022-11-12T20:36:14.821Z,160.33
2022-11-12T20:39:02.088Z,170.33
2022-11-12T20:41:48.619Z,166.57
2022-11-12T20:44:36.320Z,162.80
2022-11-12T20:47:23.385Z,170.70
2022-11-12T20:50:09.897Z,174.07
2022-11-12T20:52:56.310Z,154.87
2022-11-12T20:55:42.939Z,153.07
2022-11-12T20:58:30.528Z,177.43
2022-11-12T21:01:19.701Z,144.63
2022-11-12T21:04:26.473Z,162.80
2022-11-12T21:07:33.403Z,158.77
2022-11-12T21:10:40.138Z,145.67
2022-11-12T21:13:46.790Z,141.47
2022-11-12T21:16:54.521Z,146.67
2022-11-12T21:20:01.241Z,146.27
2022-11-12T21:23:07.985Z,142.50
2022-11-12T21:26:16.246Z,134.27
2022-11-12T21:29:22.911Z,135.00
2022-11-12T21:32:30.920Z,166.17
2022-11-12T21:35:37.375Z,138.40
2022-11-12T21:38:43.862Z,154.20
2022-11-12T21:41:50.345Z,143.20
2022-11-12T21:44:56.614Z,151.87
2022-11-12T21:48:05.117Z,149.67
2022-11-12T21:51:14.024Z,163.93
2022-11-12T21:54:20.599Z,143.53
2022-11-12T21:57:27.097Z,169.03
2022-11-12T22:00:42.266Z,148.83
2022-11-12T22:03:51.855Z,154.87
2022-11-12T22:06:58.609Z,154.43
2022-11-12T22:10:05.557Z,148.77
2022-11-12T22:13:26.566Z,147.47
2022-11-12T22:16:34.035Z,143.60
2022-11-12T22:19:41.830Z,137.93
2022-11-12T22:22:48.275Z,144.00
2022-11-12T22:25:57.829Z,129.10
2022-11-12T22:29:05.192Z,126.03
2022-11-12T22:32:11.925Z,134.53
2022-11-12T22:35:19.973Z,128.03
2022-11-12T22:38:26.525Z,133.97
2022-11-12T22:41:33.918Z,133.20
2022-11-12T22:44:40.632Z,126.07
2022-11-12T22:47:47.127Z,118.87
2022-11-12T22:50:59.438Z,141.63
2022-11-12T22:54:07.827Z,128.40
2022-11-12T22:57:14.295Z,133.90
2022-11-12T23:00:29.984Z,133.53
2022-11-12T23:03:38.136Z,137.80
2022-11-12T23:06:46.176Z,134.83
2022-11-12T23:09:52.408Z,125.37
2022-11-12T23:12:58.969Z,126.77
2022-11-12T23:16:08.178Z,119.80
2022-11-12T23:19:14.678Z,133.53
2022-11-12T23:22:22.479Z,124.57
2022-11-12T23:25:29.776Z,124.03
2022-11-12T23:28:37.276Z,124.10
2022-11-12T23:31:44.224Z,119.83
2022-11-12T23:34:50.859Z,127.53
2022-11-12T23:37:58.769Z,122.83
2022-11-12T23:41:06.283Z,124.20
2022-11-12T23:44:12.928Z,115.00
2022-11-12T23:47:19.286Z,123.60
2022-11-12T23:50:25.959Z,120.00
2022-11-12T23:53:34.583Z,116.47
2022-11-12T23:56:40.825Z,116.43
2022-11-12T23:59:47.456Z,120.00
